ePrivacy and GPDR Cookie Consent by Cookie Consent
EmailTwitter


Observations de surface / France / LFBD (07510)

Régions: Québec | Canada | États-Unis | Europe | France | UK | Ailleurs
Station
Affichage
Infos & localisation pour LFBD (07510) | Aide pour décoder les METARs

Observations prises le 2024-04-18 à 03H30 UTC à BORDEAUX/MERIGNA, FR (LFBD)

Etat du ciel: couvert.

Température: 9.0 Celsius

Point de rosée: 4.0 Celsius

Humidité relative: 71%

Vents: Nord-nord-ouest à 9 km/h ou 5 noeuds.

Pression au niveau moyen de la mer: 101.90 kilopascals.

Visibilité horizontale: 6.21 milles terrestres ou 9.94 kilomètres.

Hauteur du plafond: 1372 mètres ( 4500 pieds ).

Observation METAR:

LFBD 180330Z AUTO 34005KT 9999 OVC045 09/04 Q1019 NOSIG=